sensor_id;sensor_type;location;lat;lon;timestamp;temperature;humidity
3528;DHT22;1778;47.966;7.854;2022-08-21T00:00:11;15.30;99.90
3528;DHT22;1778;47.966;7.854;2022-08-21T00:01:16;15.30;99.90
3528;DHT22;1778;47.966;7.854;2022-08-21T00:02:22;15.30;99.90
3528;DHT22;1778;47.966;7.854;2022-08-21T00:03:23;15.30;99.90
3528;DHT22;1778;47.966;7.854;2022-08-21T00:04:25;15.30;99.90
3528;DHT22;1778;47.966;7.854;2022-08-21T00:05:32;15.40;99.90
3528;DHT22;1778;47.966;7.854;2022-08-21T00:06:35;15.40;99.90
3528;DHT22;1778;47.966;7.854;2022-08-21T00:07:37;15.40;99.90
3528;DHT22;1778;47.966;7.854;2022-08-21T00:08:39;15.30;99.90
3528;DHT22;1778;47.966;7.854;2022-08-21T00:09:42;15.40;99.90
3528;DHT22;1778;47.966;7.854;2022-08-21T00:10:44;15.50;99.90
3528;DHT22;1778;47.966;7.854;2022-08-21T00:11:46;15.50;99.90
3528;DHT22;1778;47.966;7.854;2022-08-21T00:12:49;15.50;99.90
3528;DHT22;1778;47.966;7.854;2022-08-21T00:13:53;15.50;99.90
3528;DHT22;1778;47.966;7.854;2022-08-21T00:14:55;15.50;99.90
3528;DHT22;1778;47.966;7.854;2022-08-21T00:15:59;15.50;99.90
3528;DHT22;1778;47.966;7.854;2022-08-21T00:17:01;15.50;99.90
3528;DHT22;1778;47.966;7.854;2022-08-21T00:18:05;15.50;99.90
3528;DHT22;1778;47.966;7.854;2022-08-21T00:19:07;15.50;99.90
3528;DHT22;1778;47.966;7.854;2022-08-21T00:20:11;15.40;99.90
3528;DHT22;1778;47.966;7.854;2022-08-21T00:21:14;15.40;99.90
3528;DHT22;1778;47.966;7.854;2022-08-21T00:22:16;15.30;99.90
3528;DHT22;1778;47.966;7.854;2022-08-21T00:23:18;15.30;99.90
3528;DHT22;1778;47.966;7.854;2022-08-21T00:24:21;15.40;99.90
3528;DHT22;1778;47.966;7.854;2022-08-21T00:25:23;15.40;99.90
3528;DHT22;1778;47.966;7.854;2022-08-21T00:26:26;15.30;99.90
3528;DHT22;1778;47.966;7.854;2022-08-21T00:27:28;15.30;99.90
3528;DHT22;1778;47.966;7.854;2022-08-21T00:28:30;15.30;99.90
3528;DHT22;1778;47.966;7.854;2022-08-21T00:29:32;15.30;99.90
3528;DHT22;1778;47.966;7.854;2022-08-21T00:30:34;15.30;99.90
3528;DHT22;1778;47.966;7.854;2022-08-21T00:31:36;15.20;99.90
3528;DHT22;1778;47.966;7.854;2022-08-21T00:32:39;15.20;99.90
3528;DHT22;1778;47.966;7.854;2022-08-21T00:33:41;15.20;99.90
3528;DHT22;1778;47.966;7.854;2022-08-21T00:34:43;15.30;99.90
3528;DHT22;1778;47.966;7.854;2022-08-21T00:35:44;15.30;99.90
3528;DHT22;1778;47.966;7.854;2022-08-21T00:36:46;15.20;99.90
3528;DHT22;1778;47.966;7.854;2022-08-21T00:37:48;15.20;99.90
3528;DHT22;1778;47.966;7.854;2022-08-21T00:38:49;15.20;99.90
3528;DHT22;1778;47.966;7.854;2022-08-21T00:39:51;15.10;99.90
3528;DHT22;1778;47.966;7.854;2022-08-21T00:40:56;15.10;99.90
3528;DHT22;1778;47.966;7.854;2022-08-21T00:42:00;15.20;99.90
3528;DHT22;1778;47.966;7.854;2022-08-21T00:43:03;15.10;99.90
3528;DHT22;1778;47.966;7.854;2022-08-21T00:44:11;15.20;99.90
3528;DHT22;1778;47.966;7.854;2022-08-21T00:45:13;15.20;99.90
3528;DHT22;1778;47.966;7.854;2022-08-21T00:46:15;15.20;99.90
3528;DHT22;1778;47.966;7.854;2022-08-21T00:47:18;15.10;99.90
3528;DHT22;1778;47.966;7.854;2022-08-21T00:48:21;15.20;99.90
3528;DHT22;1778;47.966;7.854;2022-08-21T00:49:23;15.20;99.90
3528;DHT22;1778;47.966;7.854;2022-08-21T00:50:29;15.10;99.90
3528;DHT22;1778;47.966;7.854;2022-08-21T00:51:42;15.20;99.90
3528;DHT22;1778;47.966;7.854;2022-08-21T00:52:46;15.10;99.90
3528;DHT22;1778;47.966;7.854;2022-08-21T00:53:53;15.00;99.90
3528;DHT22;1778;47.966;7.854;2022-08-21T00:54:57;15.10;99.90
3528;DHT22;1778;47.966;7.854;2022-08-21T00:56:00;15.00;99.90
3528;DHT22;1778;47.966;7.854;2022-08-21T00:57:07;15.00;99.90
3528;DHT22;1778;47.966;7.854;2022-08-21T00:58:12;15.00;99.90
3528;DHT22;1778;47.966;7.854;2022-08-21T00:59:20;15.00;99.90
3528;DHT22;1778;47.966;7.854;2022-08-21T01:00:26;15.00;99.90
3528;DHT22;1778;47.966;7.854;2022-08-21T01:01:31;15.00;99.90
3528;DHT22;1778;47.966;7.854;2022-08-21T01:02:33;15.00;99.90
3528;DHT22;1778;47.966;7.854;2022-08-21T01:03:36;15.10;99.90
3528;DHT22;1778;47.966;7.854;2022-08-21T01:04:45;15.10;99.90
3528;DHT22;1778;47.966;7.854;2022-08-21T01:05:48;15.00;99.90
3528;DHT22;1778;47.966;7.854;2022-08-21T01:06:49;15.00;99.90
3528;DHT22;1778;47.966;7.854;2022-08-21T01:07:53;15.10;99.90
3528;DHT22;1778;47.966;7.854;2022-08-21T01:08:58;15.10;99.90
3528;DHT22;1778;47.966;7.854;2022-08-21T01:10:00;15.20;99.90
3528;DHT22;1778;47.966;7.854;2022-08-21T01:11:03;15.10;99.90
3528;DHT22;1778;47.966;7.854;2022-08-21T01:12:05;15.00;99.90
3528;DHT22;1778;47.966;7.854;2022-08-21T01:13:09;15.00;99.90
3528;DHT22;1778;47.966;7.854;2022-08-21T01:14:13;15.00;99.90
3528;DHT22;1778;47.966;7.854;2022-08-21T01:15:16;14.90;99.90
3528;DHT22;1778;47.966;7.854;2022-08-21T01:16:20;14.90;99.90
3528;DHT22;1778;47.966;7.854;2022-08-21T01:17:22;14.80;99.90
3528;DHT22;1778;47.966;7.854;2022-08-21T01:18:24;14.80;99.90
3528;DHT22;1778;47.966;7.854;2022-08-21T01:19:26;14.90;99.90
3528;DHT22;1778;47.966;7.854;2022-08-21T01:20:28;14.90;99.90
3528;DHT22;1778;47.966;7.854;2022-08-21T01:21:33;14.80;99.90
3528;DHT22;1778;47.966;7.854;2022-08-21T01:22:35;14.80;99.90
3528;DHT22;1778;47.966;7.854;2022-08-21T01:23:39;14.90;99.90
3528;DHT22;1778;47.966;7.854;2022-08-21T01:24:41;14.90;99.90
3528;DHT22;1778;47.966;7.854;2022-08-21T01:25:43;15.00;99.90
3528;DHT22;1778;47.966;7.854;2022-08-21T01:26:45;15.00;99.90
3528;DHT22;1778;47.966;7.854;2022-08-21T01:27:47;15.00;99.90
3528;DHT22;1778;47.966;7.854;2022-08-21T01:30:16;14.90;99.90
3528;DHT22;1778;47.966;7.854;2022-08-21T01:31:22;14.90;99.90
3528;DHT22;1778;47.966;7.854;2022-08-21T01:32:26;14.90;99.90
3528;DHT22;1778;47.966;7.854;2022-08-21T01:33:29;14.80;99.90
3528;DHT22;1778;47.966;7.854;2022-08-21T01:34:32;14.80;99.90
3528;DHT22;1778;47.966;7.854;2022-08-21T01:35:34;14.90;99.90
3528;DHT22;1778;47.966;7.854;2022-08-21T01:36:36;14.90;99.90
3528;DHT22;1778;47.966;7.854;2022-08-21T01:37:38;14.90;99.90
3528;DHT22;1778;47.966;7.854;2022-08-21T01:38:39;15.00;99.90
3528;DHT22;1778;47.966;7.854;2022-08-21T01:39:42;15.00;99.90
3528;DHT22;1778;47.966;7.854;2022-08-21T01:40:44;15.00;99.90
3528;DHT22;1778;47.966;7.854;2022-08-21T01:41:47;15.00;99.90
3528;DHT22;1778;47.966;7.854;2022-08-21T01:42:48;14.90;99.90
3528;DHT22;1778;47.966;7.854;2022-08-21T01:43:50;14.90;99.90
3528;DHT22;1778;47.966;7.854;2022-08-21T01:44:52;14.90;99.90
3528;DHT22;1778;47.966;7.854;2022-08-21T01:45:56;15.00;99.90
3528;DHT22;1778;47.966;7.854;2022-08-21T01:47:00;14.90;99.90
3528;DHT22;1778;47.966;7.854;2022-08-21T01:48:02;15.00;99.90
3528;DHT22;1778;47.966;7.854;2022-08-21T01:49:04;15.00;99.90
3528;DHT22;1778;47.966;7.854;2022-08-21T01:50:11;15.00;99.90
3528;DHT22;1778;47.966;7.854;2022-08-21T01:51:14;15.00;99.90
3528;DHT22;1778;47.966;7.854;2022-08-21T01:52:16;15.00;99.90
3528;DHT22;1778;47.966;7.854;2022-08-21T01:53:18;15.00;99.90
3528;DHT22;1778;47.966;7.854;2022-08-21T01:54:29;14.90;99.90
3528;DHT22;1778;47.966;7.854;2022-08-21T01:55:31;15.00;99.90
3528;DHT22;1778;47.966;7.854;2022-08-21T01:56:43;15.10;99.90
3528;DHT22;1778;47.966;7.854;2022-08-21T01:57:46;15.00;99.90
3528;DHT22;1778;47.966;7.854;2022-08-21T01:58:48;14.90;99.90
3528;DHT22;1778;47.966;7.854;2022-08-21T01:59:50;14.90;99.90
3528;DHT22;1778;47.966;7.854;2022-08-21T02:00:51;14.90;99.90
3528;DHT22;1778;47.966;7.854;2022-08-21T02:01:54;14.90;99.90
3528;DHT22;1778;47.966;7.854;2022-08-21T02:02:57;14.90;99.90
3528;DHT22;1778;47.966;7.854;2022-08-21T02:03:59;14.90;99.90
3528;DHT22;1778;47.966;7.854;2022-08-21T02:05:00;14.90;99.90
3528;DHT22;1778;47.966;7.854;2022-08-21T02:06:04;15.00;99.90
3528;DHT22;1778;47.966;7.854;2022-08-21T02:07:06;15.10;99.90
3528;DHT22;1778;47.966;7.854;2022-08-21T02:08:10;15.00;99.90
3528;DHT22;1778;47.966;7.854;2022-08-21T02:09:13;15.00;99.90
3528;DHT22;1778;47.966;7.854;2022-08-21T02:10:19;15.00;99.90
3528;DHT22;1778;47.966;7.854;2022-08-21T02:11:21;14.90;99.90
3528;DHT22;1778;47.966;7.854;2022-08-21T02:12:23;15.00;99.90
3528;DHT22;1778;47.966;7.854;2022-08-21T02:13:24;14.90;99.90
3528;DHT22;1778;47.966;7.854;2022-08-21T02:14:26;15.00;99.90
3528;DHT22;1778;47.966;7.854;2022-08-21T02:15:33;15.00;99.90
3528;DHT22;1778;47.966;7.854;2022-08-21T02:16:35;14.90;99.90
3528;DHT22;1778;47.966;7.854;2022-08-21T02:17:58;15.00;99.90
3528;DHT22;1778;47.966;7.854;2022-08-21T02:19:00;14.90;99.90
3528;DHT22;1778;47.966;7.854;2022-08-21T02:20:03;14.80;99.90
3528;DHT22;1778;47.966;7.854;2022-08-21T02:21:05;14.80;99.90
3528;DHT22;1778;47.966;7.854;2022-08-21T02:22:09;14.90;99.90
3528;DHT22;1778;47.966;7.854;2022-08-21T02:23:12;14.80;99.90
3528;DHT22;1778;47.966;7.854;2022-08-21T02:24:13;14.80;99.90
3528;DHT22;1778;47.966;7.854;2022-08-21T02:25:16;14.80;99.90
3528;DHT22;1778;47.966;7.854;2022-08-21T02:26:19;14.80;99.90
3528;DHT22;1778;47.966;7.854;2022-08-21T02:27:23;14.80;99.90
3528;DHT22;1778;47.966;7.854;2022-08-21T02:28:28;14.80;99.90
3528;DHT22;1778;47.966;7.854;2022-08-21T02:29:29;14.80;99.90
3528;DHT22;1778;47.966;7.854;2022-08-21T02:30:34;14.90;99.90
3528;DHT22;1778;47.966;7.854;2022-08-21T02:31:36;15.00;99.90
3528;DHT22;1778;47.966;7.854;2022-08-21T02:32:38;15.00;99.90
3528;DHT22;1778;47.966;7.854;2022-08-21T02:33:40;15.00;99.90
3528;DHT22;1778;47.966;7.854;2022-08-21T02:34:41;14.90;99.90
3528;DHT22;1778;47.966;7.854;2022-08-21T02:35:45;15.00;99.90
3528;DHT22;1778;47.966;7.854;2022-08-21T02:36:47;15.00;99.90
3528;DHT22;1778;47.966;7.854;2022-08-21T02:38:07;15.00;99.90
3528;DHT22;1778;47.966;7.854;2022-08-21T02:39:13;14.90;99.90
3528;DHT22;1778;47.966;7.854;2022-08-21T02:40:16;14.90;99.90
3528;DHT22;1778;47.966;7.854;2022-08-21T02:41:20;14.80;99.90
3528;DHT22;1778;47.966;7.854;2022-08-21T02:42:22;14.80;99.90
3528;DHT22;1778;47.966;7.854;2022-08-21T02:43:25;14.90;99.90
3528;DHT22;1778;47.966;7.854;2022-08-21T02:44:27;14.90;99.90
3528;DHT22;1778;47.966;7.854;2022-08-21T02:45:35;14.80;99.90
3528;DHT22;1778;47.966;7.854;2022-08-21T02:46:38;14.80;99.90
3528;DHT22;1778;47.966;7.854;2022-08-21T02:47:46;14.80;99.90
3528;DHT22;1778;47.966;7.854;2022-08-21T02:48:48;14.80;99.90
3528;DHT22;1778;47.966;7.854;2022-08-21T02:49:52;14.80;99.90
3528;DHT22;1778;47.966;7.854;2022-08-21T02:50:57;14.80;99.90
3528;DHT22;1778;47.966;7.854;2022-08-21T02:51:58;14.80;99.90
3528;DHT22;1778;47.966;7.854;2022-08-21T02:53:00;14.80;99.90
3528;DHT22;1778;47.966;7.854;2022-08-21T02:54:02;14.80;99.90
3528;DHT22;1778;47.966;7.854;2022-08-21T02:55:04;14.80;99.90
3528;DHT22;1778;47.966;7.854;2022-08-21T02:56:10;14.80;99.90
3528;DHT22;1778;47.966;7.854;2022-08-21T02:57:11;14.80;99.90
3528;DHT22;1778;47.966;7.854;2022-08-21T02:58:19;14.80;99.90
3528;DHT22;1778;47.966;7.854;2022-08-21T02:59:21;14.80;99.90
3528;DHT22;1778;47.966;7.854;2022-08-21T03:00:25;14.80;99.90
3528;DHT22;1778;47.966;7.854;2022-08-21T03:01:27;14.90;99.90
3528;DHT22;1778;47.966;7.854;2022-08-21T03:02:29;14.80;99.90
3528;DHT22;1778;47.966;7.854;2022-08-21T03:03:30;14.90;99.90
3528;DHT22;1778;47.966;7.854;2022-08-21T03:04:32;14.90;99.90
3528;DHT22;1778;47.966;7.854;2022-08-21T03:05:34;14.90;99.90
3528;DHT22;1778;47.966;7.854;2022-08-21T03:06:36;14.80;99.90
3528;DHT22;1778;47.966;7.854;2022-08-21T03:07:38;14.70;99.90
3528;DHT22;1778;47.966;7.854;2022-08-21T03:08:40;14.80;99.90
3528;DHT22;1778;47.966;7.854;2022-08-21T03:09:42;14.80;99.90
3528;DHT22;1778;47.966;7.854;2022-08-21T03:10:56;14.90;99.90
3528;DHT22;1778;47.966;7.854;2022-08-21T03:11:58;14.90;99.90
3528;DHT22;1778;47.966;7.854;2022-08-21T03:13:00;14.80;99.90
3528;DHT22;1778;47.966;7.854;2022-08-21T03:14:01;14.80;99.90
3528;DHT22;1778;47.966;7.854;2022-08-21T03:15:10;14.80;99.90
3528;DHT22;1778;47.966;7.854;2022-08-21T03:16:12;14.80;99.90
3528;DHT22;1778;47.966;7.854;2022-08-21T03:17:13;14.80;99.90
3528;DHT22;1778;47.966;7.854;2022-08-21T03:18:15;14.80;99.90
3528;DHT22;1778;47.966;7.854;2022-08-21T03:19:17;14.70;99.90
3528;DHT22;1778;47.966;7.854;2022-08-21T03:20:21;14.70;99.90
3528;DHT22;1778;47.966;7.854;2022-08-21T03:21:23;14.70;99.90
3528;DHT22;1778;47.966;7.854;2022-08-21T03:22:26;14.70;99.90
3528;DHT22;1778;47.966;7.854;2022-08-21T03:23:31;14.80;99.90
3528;DHT22;1778;47.966;7.854;2022-08-21T03:24:34;14.70;99.90
3528;DHT22;1778;47.966;7.854;2022-08-21T03:25:36;14.70;99.90
3528;DHT22;1778;47.966;7.854;2022-08-21T03:26:42;14.70;99.90
3528;DHT22;1778;47.966;7.854;2022-08-21T03:27:45;14.70;99.90
3528;DHT22;1778;47.966;7.854;2022-08-21T03:28:48;14.70;99.90
3528;DHT22;1778;47.966;7.854;2022-08-21T03:29:53;14.60;99.90
3528;DHT22;1778;47.966;7.854;2022-08-21T03:30:55;14.60;99.90
3528;DHT22;1778;47.966;7.854;2022-08-21T03:31:57;14.60;99.90
3528;DHT22;1778;47.966;7.854;2022-08-21T03:32:59;14.70;99.90
3528;DHT22;1778;47.966;7.854;2022-08-21T03:34:01;14.70;99.90
3528;DHT22;1778;47.966;7.854;2022-08-21T03:35:03;14.70;99.90
3528;DHT22;1778;47.966;7.854;2022-08-21T03:36:07;14.80;99.90
3528;DHT22;1778;47.966;7.854;2022-08-21T03:37:09;14.80;99.90
3528;DHT22;1778;47.966;7.854;2022-08-21T03:38:12;14.80;99.90
3528;DHT22;1778;47.966;7.854;2022-08-21T03:39:15;14.80;99.90
3528;DHT22;1778;47.966;7.854;2022-08-21T03:40:18;14.80;99.90
3528;DHT22;1778;47.966;7.854;2022-08-21T03:41:20;14.80;99.90
3528;DHT22;1778;47.966;7.854;2022-08-21T03:42:22;14.70;99.90
3528;DHT22;1778;47.966;7.854;2022-08-21T03:43:24;14.70;99.90
3528;DHT22;1778;47.966;7.854;2022-08-21T03:44:26;14.70;99.90
3528;DHT22;1778;47.966;7.854;2022-08-21T03:45:30;14.70;99.90
3528;DHT22;1778;47.966;7.854;2022-08-21T03:46:33;14.70;99.90
3528;DHT22;1778;47.966;7.854;2022-08-21T03:47:36;14.70;99.90
3528;DHT22;1778;47.966;7.854;2022-08-21T03:48:38;14.70;99.90
3528;DHT22;1778;47.966;7.854;2022-08-21T03:49:39;14.70;99.90
3528;DHT22;1778;47.966;7.854;2022-08-21T03:50:43;14.60;99.90
3528;DHT22;1778;47.966;7.854;2022-08-21T03:51:46;14.60;99.90
3528;DHT22;1778;47.966;7.854;2022-08-21T03:53:00;14.60;99.90
3528;DHT22;1778;47.966;7.854;2022-08-21T03:54:03;14.60;99.90
3528;DHT22;1778;47.966;7.854;2022-08-21T03:55:05;14.60;99.90
3528;DHT22;1778;47.966;7.854;2022-08-21T03:56:07;14.60;99.90
3528;DHT22;1778;47.966;7.854;2022-08-21T03:57:09;14.60;99.90
3528;DHT22;1778;47.966;7.854;2022-08-21T03:58:12;14.60;99.90
3528;DHT22;1778;47.966;7.854;2022-08-21T03:59:17;14.60;99.90
3528;DHT22;1778;47.966;7.854;2022-08-21T04:00:20;14.70;99.90
3528;DHT22;1778;47.966;7.854;2022-08-21T04:01:22;14.60;99.90
3528;DHT22;1778;47.966;7.854;2022-08-21T04:02:24;14.60;99.90
3528;DHT22;1778;47.966;7.854;2022-08-21T04:03:28;14.70;99.90
3528;DHT22;1778;47.966;7.854;2022-08-21T04:04:30;14.60;99.90
3528;DHT22;1778;47.966;7.854;2022-08-21T04:05:32;14.60;99.90
3528;DHT22;1778;47.966;7.854;2022-08-21T04:06:34;14.60;99.90
3528;DHT22;1778;47.966;7.854;2022-08-21T04:07:38;14.50;99.90
3528;DHT22;1778;47.966;7.854;2022-08-21T04:08:41;14.50;99.90
3528;DHT22;1778;47.966;7.854;2022-08-21T04:09:44;14.50;99.90
3528;DHT22;1778;47.966;7.854;2022-08-21T04:10:48;14.60;99.90
3528;DHT22;1778;47.966;7.854;2022-08-21T04:11:51;14.50;99.90
3528;DHT22;1778;47.966;7.854;2022-08-21T04:12:56;14.50;99.90
3528;DHT22;1778;47.966;7.854;2022-08-21T04:13:58;14.50;99.90
3528;DHT22;1778;47.966;7.854;2022-08-21T04:15:00;14.50;99.90
3528;DHT22;1778;47.966;7.854;2022-08-21T04:16:03;14.40;99.90
3528;DHT22;1778;47.966;7.854;2022-08-21T04:17:06;14.40;99.90
3528;DHT22;1778;47.966;7.854;2022-08-21T04:18:08;14.50;99.90
3528;DHT22;1778;47.966;7.854;2022-08-21T04:19:11;14.40;99.90
3528;DHT22;1778;47.966;7.854;2022-08-21T04:20:18;14.40;99.90
3528;DHT22;1778;47.966;7.854;2022-08-21T04:21:20;14.40;99.90
3528;DHT22;1778;47.966;7.854;2022-08-21T04:22:24;14.40;99.90
3528;DHT22;1778;47.966;7.854;2022-08-21T04:23:26;14.40;99.90
3528;DHT22;1778;47.966;7.854;2022-08-21T04:24:28;14.40;99.90
3528;DHT22;1778;47.966;7.854;2022-08-21T04:25:30;14.40;99.90
3528;DHT22;1778;47.966;7.854;2022-08-21T04:26:32;14.40;99.90
3528;DHT22;1778;47.966;7.854;2022-08-21T04:27:35;14.40;99.90
3528;DHT22;1778;47.966;7.854;2022-08-21T04:28:36;14.40;99.90
3528;DHT22;1778;47.966;7.854;2022-08-21T04:29:38;14.40;99.90
3528;DHT22;1778;47.966;7.854;2022-08-21T04:30:41;14.40;99.90
3528;DHT22;1778;47.966;7.854;2022-08-21T04:31:42;14.50;99.90
3528;DHT22;1778;47.966;7.854;2022-08-21T04:32:47;14.40;99.90
3528;DHT22;1778;47.966;7.854;2022-08-21T04:33:50;14.40;99.90
3528;DHT22;1778;47.966;7.854;2022-08-21T04:35:11;14.40;99.90
3528;DHT22;1778;47.966;7.854;2022-08-21T04:36:13;14.40;99.90
3528;DHT22;1778;47.966;7.854;2022-08-21T04:37:15;14.40;99.90
3528;DHT22;1778;47.966;7.854;2022-08-21T04:38:17;14.50;99.90
3528;DHT22;1778;47.966;7.854;2022-08-21T04:39:19;14.50;99.90
3528;DHT22;1778;47.966;7.854;2022-08-21T04:40:27;14.50;99.90
3528;DHT22;1778;47.966;7.854;2022-08-21T04:41:29;14.50;99.90
3528;DHT22;1778;47.966;7.854;2022-08-21T04:42:31;14.50;99.90
3528;DHT22;1778;47.966;7.854;2022-08-21T04:43:34;14.40;99.90
3528;DHT22;1778;47.966;7.854;2022-08-21T04:44:35;14.40;99.90
3528;DHT22;1778;47.966;7.854;2022-08-21T04:45:41;14.40;99.90
3528;DHT22;1778;47.966;7.854;2022-08-21T04:46:43;14.40;99.90
3528;DHT22;1778;47.966;7.854;2022-08-21T04:47:45;14.40;99.90
3528;DHT22;1778;47.966;7.854;2022-08-21T04:48:53;14.50;99.90
3528;DHT22;1778;47.966;7.854;2022-08-21T04:49:55;14.40;99.90
3528;DHT22;1778;47.966;7.854;2022-08-21T04:51:01;14.40;99.90
3528;DHT22;1778;47.966;7.854;2022-08-21T04:52:04;14.50;99.90
3528;DHT22;1778;47.966;7.854;2022-08-21T04:53:15;14.60;99.90
3528;DHT22;1778;47.966;7.854;2022-08-21T04:54:19;14.60;99.90
3528;DHT22;1778;47.966;7.854;2022-08-21T04:55:22;14.60;99.90
3528;DHT22;1778;47.966;7.854;2022-08-21T04:56:31;14.70;99.90
3528;DHT22;1778;47.966;7.854;2022-08-21T04:57:33;14.70;99.90
3528;DHT22;1778;47.966;7.854;2022-08-21T04:58:49;14.70;99.90
3528;DHT22;1778;47.966;7.854;2022-08-21T04:59:52;14.70;99.90
3528;DHT22;1778;47.966;7.854;2022-08-21T05:00:55;14.70;99.90
3528;DHT22;1778;47.966;7.854;2022-08-21T05:01:57;14.80;99.90
3528;DHT22;1778;47.966;7.854;2022-08-21T05:03:01;14.80;99.90
3528;DHT22;1778;47.966;7.854;2022-08-21T05:04:06;14.80;99.90
3528;DHT22;1778;47.966;7.854;2022-08-21T05:05:10;14.80;99.90
3528;DHT22;1778;47.966;7.854;2022-08-21T05:06:14;14.90;99.90
3528;DHT22;1778;47.966;7.854;2022-08-21T05:07:19;14.90;99.90
3528;DHT22;1778;47.966;7.854;2022-08-21T05:08:42;15.00;99.90
3528;DHT22;1778;47.966;7.854;2022-08-21T05:09:45;15.00;99.90
3528;DHT22;1778;47.966;7.854;2022-08-21T05:10:47;15.10;99.90
3528;DHT22;1778;47.966;7.854;2022-08-21T05:11:49;15.10;99.90
3528;DHT22;1778;47.966;7.854;2022-08-21T05:12:53;15.10;99.90
3528;DHT22;1778;47.966;7.854;2022-08-21T05:13:55;15.20;99.90
3528;DHT22;1778;47.966;7.854;2022-08-21T05:14:57;15.20;99.90
3528;DHT22;1778;47.966;7.854;2022-08-21T05:15:59;15.20;99.90
3528;DHT22;1778;47.966;7.854;2022-08-21T05:17:00;15.30;99.90
3528;DHT22;1778;47.966;7.854;2022-08-21T05:18:02;15.30;99.90
3528;DHT22;1778;47.966;7.854;2022-08-21T05:19:06;15.40;99.90
3528;DHT22;1778;47.966;7.854;2022-08-21T05:20:09;15.40;99.90
3528;DHT22;1778;47.966;7.854;2022-08-21T05:21:11;15.50;99.90
3528;DHT22;1778;47.966;7.854;2022-08-21T05:22:19;15.50;99.90
3528;DHT22;1778;47.966;7.854;2022-08-21T05:23:21;15.50;99.90
3528;DHT22;1778;47.966;7.854;2022-08-21T05:24:23;15.50;99.90
3528;DHT22;1778;47.966;7.854;2022-08-21T05:25:25;15.60;99.90
3528;DHT22;1778;47.966;7.854;2022-08-21T05:26:28;15.60;99.90
3528;DHT22;1778;47.966;7.854;2022-08-21T05:27:31;15.60;99.90
3528;DHT22;1778;47.966;7.854;2022-08-21T05:28:34;15.60;99.90
3528;DHT22;1778;47.966;7.854;2022-08-21T05:29:36;15.60;99.90
3528;DHT22;1778;47.966;7.854;2022-08-21T05:30:38;15.60;99.90
3528;DHT22;1778;47.966;7.854;2022-08-21T05:31:40;15.70;99.90
3528;DHT22;1778;47.966;7.854;2022-08-21T05:32:41;15.70;99.90
3528;DHT22;1778;47.966;7.854;2022-08-21T05:33:43;15.70;99.90
3528;DHT22;1778;47.966;7.854;2022-08-21T05:34:45;15.70;99.90
3528;DHT22;1778;47.966;7.854;2022-08-21T05:35:50;15.70;99.90
3528;DHT22;1778;47.966;7.854;2022-08-21T05:36:52;15.80;99.90
3528;DHT22;1778;47.966;7.854;2022-08-21T05:37:54;15.90;99.90
3528;DHT22;1778;47.966;7.854;2022-08-21T05:38:56;15.90;99.90
3528;DHT22;1778;47.966;7.854;2022-08-21T05:39:59;16.00;99.90
3528;DHT22;1778;47.966;7.854;2022-08-21T05:41:21;16.00;99.90
3528;DHT22;1778;47.966;7.854;2022-08-21T05:42:22;16.00;99.90
3528;DHT22;1778;47.966;7.854;2022-08-21T05:43:24;16.00;99.90
3528;DHT22;1778;47.966;7.854;2022-08-21T05:44:26;16.10;99.90
3528;DHT22;1778;47.966;7.854;2022-08-21T05:45:31;16.10;99.90
3528;DHT22;1778;47.966;7.854;2022-08-21T05:46:43;16.20;99.90
3528;DHT22;1778;47.966;7.854;2022-08-21T05:47:45;16.20;99.90
3528;DHT22;1778;47.966;7.854;2022-08-21T05:48:46;16.30;99.90
3528;DHT22;1778;47.966;7.854;2022-08-21T05:49:48;16.30;99.90
3528;DHT22;1778;47.966;7.854;2022-08-21T05:50:51;16.30;99.90
3528;DHT22;1778;47.966;7.854;2022-08-21T05:51:53;16.40;99.90
3528;DHT22;1778;47.966;7.854;2022-08-21T05:52:54;16.40;99.90
3528;DHT22;1778;47.966;7.854;2022-08-21T05:54:05;16.40;99.90
3528;DHT22;1778;47.966;7.854;2022-08-21T05:55:07;16.40;99.90
3528;DHT22;1778;47.966;7.854;2022-08-21T05:56:09;16.40;99.90
3528;DHT22;1778;47.966;7.854;2022-08-21T05:57:11;16.50;99.90
3528;DHT22;1778;47.966;7.854;2022-08-21T05:58:15;16.50;99.90
3528;DHT22;1778;47.966;7.854;2022-08-21T05:59:17;16.50;99.90
3528;DHT22;1778;47.966;7.854;2022-08-21T06:00:19;16.60;99.90
3528;DHT22;1778;47.966;7.854;2022-08-21T06:01:21;16.60;99.90
3528;DHT22;1778;47.966;7.854;2022-08-21T06:02:23;16.70;99.90
3528;DHT22;1778;47.966;7.854;2022-08-21T06:03:33;16.70;99.90
3528;DHT22;1778;47.966;7.854;2022-08-21T06:04:36;16.80;99.90
3528;DHT22;1778;47.966;7.854;2022-08-21T06:05:38;16.80;99.90
3528;DHT22;1778;47.966;7.854;2022-08-21T06:06:40;16.80;99.90
3528;DHT22;1778;47.966;7.854;2022-08-21T06:07:41;16.90;99.90
3528;DHT22;1778;47.966;7.854;2022-08-21T06:08:43;16.90;99.90
3528;DHT22;1778;47.966;7.854;2022-08-21T06:09:44;17.00;99.90
3528;DHT22;1778;47.966;7.854;2022-08-21T06:10:47;17.00;99.90
3528;DHT22;1778;47.966;7.854;2022-08-21T06:11:49;17.00;99.90
3528;DHT22;1778;47.966;7.854;2022-08-21T06:12:54;17.10;99.90
3528;DHT22;1778;47.966;7.854;2022-08-21T06:13:56;17.10;99.90
3528;DHT22;1778;47.966;7.854;2022-08-21T06:14:58;17.20;99.90
3528;DHT22;1778;47.966;7.854;2022-08-21T06:16:07;17.20;99.90
3528;DHT22;1778;47.966;7.854;2022-08-21T06:17:11;17.20;99.90
3528;DHT22;1778;47.966;7.854;2022-08-21T06:18:16;17.20;99.90
3528;DHT22;1778;47.966;7.854;2022-08-21T06:19:18;17.30;99.90
3528;DHT22;1778;47.966;7.854;2022-08-21T06:20:20;17.30;99.90
3528;DHT22;1778;47.966;7.854;2022-08-21T06:21:22;17.40;99.90
3528;DHT22;1778;47.966;7.854;2022-08-21T06:22:23;17.40;99.90
3528;DHT22;1778;47.966;7.854;2022-08-21T06:23:25;17.50;99.90
3528;DHT22;1778;47.966;7.854;2022-08-21T06:24:34;17.50;99.90
3528;DHT22;1778;47.966;7.854;2022-08-21T06:25:35;17.50;99.90
3528;DHT22;1778;47.966;7.854;2022-08-21T06:26:37;17.60;99.90
3528;DHT22;1778;47.966;7.854;2022-08-21T06:27:39;17.60;99.90
3528;DHT22;1778;47.966;7.854;2022-08-21T06:28:41;17.60;99.90
3528;DHT22;1778;47.966;7.854;2022-08-21T06:29:44;17.60;99.90
3528;DHT22;1778;47.966;7.854;2022-08-21T06:30:46;17.60;99.90
3528;DHT22;1778;47.966;7.854;2022-08-21T06:31:49;17.50;99.90
3528;DHT22;1778;47.966;7.854;2022-08-21T06:32:51;17.50;99.90
3528;DHT22;1778;47.966;7.854;2022-08-21T06:33:53;17.40;99.90
3528;DHT22;1778;47.966;7.854;2022-08-21T06:34:55;17.40;99.90
3528;DHT22;1778;47.966;7.854;2022-08-21T06:35:57;17.40;99.90
3528;DHT22;1778;47.966;7.854;2022-08-21T06:36:58;17.50;99.90
3528;DHT22;1778;47.966;7.854;2022-08-21T06:38:00;17.50;99.90
3528;DHT22;1778;47.966;7.854;2022-08-21T06:39:02;17.50;99.90
3528;DHT22;1778;47.966;7.854;2022-08-21T06:40:28;17.60;99.90
3528;DHT22;1778;47.966;7.854;2022-08-21T06:41:32;17.60;99.90
3528;DHT22;1778;47.966;7.854;2022-08-21T06:42:39;17.70;99.90
3528;DHT22;1778;47.966;7.854;2022-08-21T06:43:43;17.70;99.90
3528;DHT22;1778;47.966;7.854;2022-08-21T06:44:45;17.80;99.90
3528;DHT22;1778;47.966;7.854;2022-08-21T06:45:48;17.80;99.90
3528;DHT22;1778;47.966;7.854;2022-08-21T06:46:49;17.80;99.90
3528;DHT22;1778;47.966;7.854;2022-08-21T06:47:51;17.80;99.90
3528;DHT22;1778;47.966;7.854;2022-08-21T06:48:53;17.80;99.90
3528;DHT22;1778;47.966;7.854;2022-08-21T06:49:55;17.90;99.90
3528;DHT22;1778;47.966;7.854;2022-08-21T06:50:56;17.90;99.90
3528;DHT22;1778;47.966;7.854;2022-08-21T06:51:58;17.80;99.90
3528;DHT22;1778;47.966;7.854;2022-08-21T06:54:03;17.80;99.90
3528;DHT22;1778;47.966;7.854;2022-08-21T06:55:07;17.80;99.90
3528;DHT22;1778;47.966;7.854;2022-08-21T06:56:10;17.90;99.90